Time;durP1;ratioP1;P1;durP2;ratioP2;P2;SDS_P1;SDS_P2;PMS_P1;PMS_P2;Temp;Humidity;BMP_temperature;BMP_pressure;BME280_temperature;BME280_humidity;BME280_pressure;Samples;Min_cycle;Max_cycle;Signal;HPM_P1;HPM_P2
2023/04/19 00:02:01;;;;;;;23.20;18.13;;;;;;;11.02;73.46;102559.69;5078792;28;20024;-47
2023/04/19 00:04:26;;;;;;;24.67;19.20;;;;;;;10.98;72.52;102557.72;5095172;28;20065;-44
2023/04/19 00:06:52;;;;;;;24.20;18.45;;;;;;;10.98;72.45;102558.53;5095060;28;20059;-46
2023/04/19 00:09:18;;;;;;;24.10;18.50;;;;;;;11.02;73.09;102556.06;5093928;28;20067;-44
2023/04/19 00:11:43;;;;;;;24.63;18.80;;;;;;;10.99;72.63;102557.44;5094980;28;20032;-47
2023/04/19 00:14:08;;;;;;;25.35;19.48;;;;;;;11.04;72.97;102564.97;5095057;28;20032;-44
2023/04/19 00:16:34;;;;;;;25.35;19.55;;;;;;;11.00;73.12;102550.81;5095047;28;20024;-44
2023/04/19 00:18:59;;;;;;;25.65;19.15;;;;;;;11.03;72.87;102555.81;5094986;28;20649;-48
2023/04/19 00:21:25;;;;;;;24.98;19.00;;;;;;;11.05;73.08;102555.53;5094957;28;20024;-45
2023/04/19 00:23:50;;;;;;;24.48;18.42;;;;;;;11.11;74.22;102559.19;5095057;28;20187;-46
2023/04/19 00:26:16;;;;;;;26.20;20.40;;;;;;;11.13;72.88;102562.53;5094882;28;20027;-45
2023/04/19 00:28:41;;;;;;;24.50;17.98;;;;;;;11.17;74.42;102547.03;5095085;28;20024;-45
2023/04/19 00:31:06;;;;;;;24.50;19.83;;;;;;;11.15;73.03;102554.75;5094923;28;20024;-44
2023/04/19 00:33:32;;;;;;;28.60;19.15;;;;;;;11.12;72.59;102553.38;5094573;28;20439;-44
2023/04/19 00:35:57;;;;;;;25.17;18.58;;;;;;;11.12;73.50;102553.38;5094699;28;20028;-44
2023/04/19 00:38:22;;;;;;;25.83;19.75;;;;;;;11.12;73.06;102549.78;5094762;28;20054;-45
2023/04/19 00:40:48;;;;;;;25.08;19.42;;;;;;;11.15;73.34;102547.31;5095055;28;20094;-45
2023/04/19 00:43:19;;;;;;;24.27;18.83;;;;;;;11.19;73.84;102556.72;5094558;28;20449;-45
2023/04/19 00:45:46;;;;;;;23.20;17.77;;;;;;;11.18;74.41;102546.78;5094856;28;20201;-45
2023/04/19 00:48:13;;;;;;;25.27;19.30;;;;;;;11.19;73.91;102551.19;5094772;28;20028;-44
2023/04/19 00:50:39;;;;;;;25.30;19.00;;;;;;;11.22;73.61;102553.44;5093255;28;20028;-47
2023/04/19 00:53:05;;;;;;;25.50;19.20;;;;;;;11.22;73.64;102547.06;5090175;28;20119;-48
2023/04/19 00:55:30;;;;;;;26.10;18.88;;;;;;;11.23;74.27;102549.56;5094520;28;20123;-45
2023/04/19 00:57:56;;;;;;;25.27;19.08;;;;;;;11.22;73.91;102547.88;5094663;28;20036;-45
2023/04/19 01:00:21;;;;;;;24.27;19.25;;;;;;;11.21;74.21;102548.16;5094545;28;20039;-45
2023/04/19 01:02:47;;;;;;;26.10;19.23;;;;;;;11.20;74.55;102546.50;5094670;28;20062;-44
2023/04/19 01:05:13;;;;;;;26.02;19.33;;;;;;;11.20;74.66;102546.50;5094434;28;20514;-48
2023/04/19 01:07:38;;;;;;;25.13;19.42;;;;;;;11.20;74.33;102546.50;5094356;28;20024;-48
2023/04/19 01:10:04;;;;;;;25.55;19.60;;;;;;;11.17;74.21;102539.56;5094487;28;20024;-48
2023/04/19 01:12:30;;;;;;;24.85;19.73;;;;;;;11.23;74.29;102540.44;5094430;28;20028;-44
2023/04/19 01:14:55;;;;;;;25.95;19.48;;;;;;;11.19;74.40;102530.97;5094005;28;20024;-45
2023/04/19 01:17:20;;;;;;;26.42;19.23;;;;;;;11.20;75.60;102527.09;5094130;28;20023;-44
2023/04/19 01:19:46;;;;;;;25.48;19.02;;;;;;;11.17;74.90;102531.25;5094168;28;20024;-45
2023/04/19 01:22:20;;;;;;;26.50;19.70;;;;;;;11.12;75.22;102522.91;5093966;28;20073;-45
2023/04/19 01:24:45;;;;;;;25.30;19.65;;;;;;;11.14;75.46;102539.28;5092629;28;20077;-45
2023/04/19 01:27:12;;;;;;;25.58;19.13;;;;;;;11.15;75.97;102540.91;5093891;28;20028;-45
2023/04/19 01:29:38;;;;;;;26.35;19.50;;;;;;;11.12;76.03;102541.47;5094030;28;20036;-44
2023/04/19 01:32:03;;;;;;;26.42;19.95;;;;;;;11.16;75.67;102529.59;5093661;28;20022;-44
2023/04/19 01:34:29;;;;;;;25.98;19.42;;;;;;;11.15;76.36;102529.84;5094010;28;20028;-44
2023/04/19 01:36:54;;;;;;;26.77;19.70;;;;;;;11.13;76.13;102524.56;5093941;28;20028;-46
2023/04/19 01:39:20;;;;;;;25.45;18.38;;;;;;;11.18;77.60;102532.06;5093501;28;20051;-47
2023/04/19 01:41:45;;;;;;;25.75;19.20;;;;;;;11.16;77.10;102528.72;5093520;28;20541;-44
2023/04/19 01:44:11;;;;;;;26.73;19.50;;;;;;;11.15;76.76;102521.53;5093670;28;20111;-44
2023/04/19 01:46:37;;;;;;;25.73;19.83;;;;;;;11.15;76.79;102530.69;5093512;28;20047;-46
2023/04/19 01:49:03;;;;;;;26.75;20.33;;;;;;;11.12;76.87;102522.91;5093612;28;20043;-44
2023/04/19 01:51:28;;;;;;;27.65;18.65;;;;;;;11.13;77.85;102521.81;5093483;28;20032;-47
2023/04/19 01:53:54;;;;;;;25.65;19.02;;;;;;;11.14;77.90;102517.13;5093257;28;20478;-46
2023/04/19 01:56:20;;;;;;;26.25;18.70;;;;;;;11.18;78.10;102523.75;5093287;28;20058;-45
2023/04/19 01:58:46;;;;;;;27.33;19.45;;;;;;;11.19;78.16;102525.44;5089329;28;20034;-44
2023/04/19 02:01:11;;;;;;;27.33;19.63;;;;;;;11.20;78.71;102521.56;5093277;28;20107;-46
2023/04/19 02:03:38;;;;;;;29.15;19.58;;;;;;;11.22;78.51;102519.38;5092125;28;20016;-45
2023/04/19 02:06:03;;;;;;;25.60;18.70;;;;;;;11.27;79.57;102521.31;5093184;28;20474;-43
2023/04/19 02:08:28;;;;;;;27.83;19.95;;;;;;;11.27;78.57;102513.00;5093163;28;20032;-44
2023/04/19 02:10:54;;;;;;;25.25;20.25;;;;;;;11.26;78.34;102514.94;5092926;28;20021;-45
2023/04/19 02:13:19;;;;;;;26.85;19.98;;;;;;;11.24;78.61;102517.97;5092989;28;20035;-45
2023/04/19 02:15:44;;;;;;;27.27;18.83;;;;;;;11.24;78.61;102512.44;5091590;28;20431;-44
2023/04/19 02:18:10;;;;;;;27.50;20.88;;;;;;;11.23;78.29;102513.53;5091788;28;20525;-46
2023/04/19 02:20:36;;;;;;;25.83;19.50;;;;;;;11.25;79.11;102510.50;5092703;28;20043;-45
2023/04/19 02:23:01;;;;;;;25.70;19.92;;;;;;;11.29;79.29;102508.88;5092566;28;20523;-48
2023/04/19 02:25:26;;;;;;;25.58;18.58;;;;;;;11.29;78.92;102517.19;5093010;28;20027;-47
2023/04/19 02:27:52;;;;;;;25.67;19.65;;;;;;;11.28;79.26;102507.19;5092685;28;20020;-46
2023/04/19 02:30:18;;;;;;;26.52;19.17;;;;;;;11.26;79.16;102517.72;5092695;28;20024;-44
2023/04/19 02:32:43;;;;;;;26.10;19.48;;;;;;;11.27;79.37;102518.56;5092485;28;20028;-44
2023/04/19 02:35:09;;;;;;;25.33;19.08;;;;;;;11.24;79.10;102512.44;5092621;28;20035;-43
2023/04/19 02:37:34;;;;;;;24.42;18.55;;;;;;;11.23;78.45;102510.78;5092431;28;20457;-45
2023/04/19 02:39:59;;;;;;;26.23;18.92;;;;;;;11.22;78.10;102511.06;5092574;28;20048;-44
2023/04/19 02:42:24;;;;;;;25.30;19.10;;;;;;;11.24;78.24;102515.22;5092549;28;20023;-44
2023/04/19 02:44:50;;;;;;;24.77;19.10;;;;;;;11.22;78.81;102522.13;5092394;28;20503;-44
2023/04/19 02:47:15;;;;;;;25.88;19.65;;;;;;;11.21;78.64;102512.97;5092361;28;20401;-44
2023/04/19 02:49:41;;;;;;;25.45;19.13;;;;;;;11.20;78.99;102521.56;5092260;28;20024;-44
2023/04/19 02:52:07;;;;;;;25.05;18.30;;;;;;;11.19;79.10;102509.63;5092038;28;20066;-44
2023/04/19 02:54:32;;;;;;;24.60;18.23;;;;;;;11.22;78.71;102517.41;5092479;28;20063;-44
2023/04/19 02:56:58;;;;;;;24.83;18.35;;;;;;;11.17;78.57;102517.41;5092228;28;20499;-44
2023/04/19 02:59:23;;;;;;;26.13;19.50;;;;;;;11.14;78.30;102517.94;5092340;28;20032;-44
2023/04/19 03:01:48;;;;;;;25.38;18.92;;;;;;;11.16;78.18;102520.44;5092156;28;20478;-45
2023/04/19 03:04:13;;;;;;;24.77;18.98;;;;;;;11.15;78.64;102519.59;5090667;28;20491;-44
2023/04/19 03:06:40;;;;;;;23.73;17.20;;;;;;;11.18;79.32;102518.22;5088627;28;20036;-43
2023/04/19 03:09:06;;;;;;;24.10;18.17;;;;;;;11.20;79.52;102521.56;5090104;28;20327;-46
2023/04/19 03:11:31;;;;;;;24.73;18.30;;;;;;;11.22;79.28;102519.38;5092065;28;20071;-44
2023/04/19 03:13:56;;;;;;;24.40;17.95;;;;;;;11.24;78.93;102517.97;5092138;28;20027;-44
2023/04/19 03:16:21;;;;;;;24.85;18.90;;;;;;;11.23;78.63;102513.53;5091815;28;20021;-44
2023/04/19 03:18:47;;;;;;;25.77;17.80;;;;;;;11.29;79.14;102513.59;5091968;28;20024;-44
2023/04/19 03:21:12;;;;;;;25.73;17.48;;;;;;;11.24;78.17;102509.69;5091864;28;20116;-44
2023/04/19 03:23:37;;;;;;;24.13;17.60;;;;;;;11.23;79.12;102496.94;5091850;28;20056;-44
2023/04/19 03:26:03;;;;;;;24.08;18.15;;;;;;;11.24;78.26;102517.97;5092017;28;20028;-44
2023/04/19 03:28:28;;;;;;;23.65;18.58;;;;;;;11.17;78.12;102508.25;5091782;28;20470;-45
2023/04/19 03:30:54;;;;;;;25.17;18.60;;;;;;;11.19;79.22;102511.59;5091760;28;20035;-44
2023/04/19 03:33:19;;;;;;;24.08;17.73;;;;;;;11.17;79.17;102509.09;5091741;28;20036;-45
2023/04/19 03:35:44;;;;;;;24.42;17.88;;;;;;;11.19;78.47;102497.72;5091660;28;20488;-44
2023/04/19 03:38:10;;;;;;;25.40;18.55;;;;;;;11.19;79.05;102501.31;5091687;28;20074;-48
2023/04/19 03:40:38;;;;;;;26.20;19.60;;;;;;;11.19;78.69;102506.88;5091411;28;20489;-47
2023/04/19 03:43:03;;;;;;;24.45;18.30;;;;;;;11.22;78.75;102502.75;5091711;28;20036;-44
2023/04/19 03:45:29;;;;;;;24.00;18.63;;;;;;;11.20;78.60;102502.19;5091743;28;20063;-44
2023/04/19 03:47:54;;;;;;;23.38;17.25;;;;;;;11.23;78.71;102499.69;5091597;28;20438;-44
2023/04/19 03:50:19;;;;;;;23.95;17.08;;;;;;;11.10;79.55;102480.78;5090204;28;20032;-44
2023/04/19 03:52:45;;;;;;;23.23;16.80;;;;;;;11.22;78.84;102505.50;5091146;28;20429;-44
2023/04/19 03:55:11;;;;;;;23.65;17.55;;;;;;;11.17;77.92;102505.47;5091352;28;20020;-44
2023/04/19 03:57:36;;;;;;;24.20;17.67;;;;;;;11.13;77.94;102505.19;5091753;28;20073;-44
2023/04/19 04:00:06;;;;;;;24.13;17.02;;;;;;;11.08;78.00;102506.00;5091564;28;20107;-44
2023/04/19 04:02:31;;;;;;;23.77;16.95;;;;;;;11.06;78.86;102508.19;5091600;28;20527;-44
2023/04/19 04:04:56;;;;;;;24.52;17.92;;;;;;;11.04;77.76;102510.41;5091551;28;20029;-44
2023/04/19 04:07:22;;;;;;;25.23;17.33;;;;;;;11.02;78.05;102507.06;5087722;28;20027;-45
2023/04/19 04:09:48;;;;;;;23.60;17.45;;;;;;;11.02;78.56;102509.00;5091530;28;20074;-45
2023/04/19 04:12:13;;;;;;;23.25;17.05;;;;;;;11.05;78.80;102505.69;5091624;28;20028;-44
2023/04/19 04:14:39;;;;;;;23.48;17.15;;;;;;;11.04;77.42;102507.66;5091308;28;20101;-45
2023/04/19 04:17:04;;;;;;;23.77;16.85;;;;;;;11.01;77.34;102493.47;5091339;28;20024;-44
2023/04/19 04:19:29;;;;;;;22.63;16.40;;;;;;;11.03;77.09;102508.75;5091385;28;20093;-45
2023/04/19 04:21:54;;;;;;;22.02;15.88;;;;;;;11.07;78.81;102512.63;5091358;28;20439;-46
2023/04/19 04:24:21;;;;;;;23.48;16.05;;;;;;;11.02;77.19;102504.31;5091415;28;20407;-46
2023/04/19 04:26:48;;;;;;;21.77;16.05;;;;;;;10.92;76.55;102493.16;5092300;28;20064;-45
2023/04/19 04:29:14;;;;;;;22.95;16.35;;;;;;;10.91;77.03;102508.13;5095172;28;20028;-48
2023/04/19 04:31:39;;;;;;;22.20;15.65;;;;;;;10.83;76.65;102514.16;5094785;28;20111;-44
2023/04/19 04:34:05;;;;;;;22.88;14.73;;;;;;;10.86;76.66;102519.16;5094430;28;20024;-44
2023/04/19 04:36:30;;;;;;;22.40;15.23;;;;;;;10.84;77.08;102513.88;5094398;28;20028;-44
2023/04/19 04:38:56;;;;;;;21.98;14.88;;;;;;;10.79;75.47;102513.84;5094657;28;20081;-44
2023/04/19 04:41:21;;;;;;;21.73;15.27;;;;;;;10.72;75.49;102527.94;5094784;28;20024;-44
2023/04/19 04:43:50;;;;;;;21.55;15.57;;;;;;;10.69;76.60;102519.31;5094663;28;20103;-45
2023/04/19 04:46:15;;;;;;;22.33;15.20;;;;;;;10.64;76.82;102514.59;5094772;28;20031;-45
2023/04/19 04:48:41;;;;;;;22.00;16.02;;;;;;;10.61;75.92;102520.63;5094477;28;20435;-44
2023/04/19 04:51:06;;;;;;;23.55;15.90;;;;;;;10.55;76.02;102518.94;5094453;28;20064;-45
2023/04/19 04:53:31;;;;;;;22.27;15.07;;;;;;;10.51;76.74;102518.66;5094301;28;20027;-44
2023/04/19 04:55:56;;;;;;;23.00;15.95;;;;;;;10.44;75.89;102520.78;5094161;28;20028;-44
2023/04/19 04:58:22;;;;;;;23.25;15.77;;;;;;;10.44;77.01;102512.47;5094172;28;20122;-45
2023/04/19 05:00:47;;;;;;;22.25;15.55;;;;;;;10.43;77.75;102522.72;5094419;28;20028;-45
2023/04/19 05:03:13;;;;;;;22.00;15.50;;;;;;;10.38;76.73;102524.59;5094066;28;20115;-45
2023/04/19 05:05:38;;;;;;;22.25;15.63;;;;;;;10.33;77.03;102521.78;5092834;28;20028;-44
2023/04/19 05:08:04;;;;;;;21.63;15.02;;;;;;;10.33;78.92;102519.84;5092265;28;20392;-45
2023/04/19 05:10:29;;;;;;;22.00;15.73;;;;;;;10.33;77.85;102528.13;5094028;28;20366;-45
2023/04/19 05:12:55;;;;;;;23.05;15.57;;;;;;;10.38;77.52;102522.69;5094021;28;20093;-48
2023/04/19 05:15:20;;;;;;;22.10;15.52;;;;;;;10.42;78.09;102523.81;5093952;28;20579;-47
2023/04/19 05:17:46;;;;;;;22.83;15.60;;;;;;;10.39;76.66;102521.56;5094102;28;20055;-46
2023/04/19 05:20:11;;;;;;;23.80;15.68;;;;;;;10.32;76.81;102533.94;5093934;28;20066;-44
2023/04/19 05:22:37;;;;;;;22.77;15.35;;;;;;;10.21;76.49;102522.78;5093921;28;20024;-45
2023/04/19 05:25:03;;;;;;;21.35;15.25;;;;;;;10.20;77.85;102517.53;5094074;28;20103;-44
2023/04/19 05:27:28;;;;;;;21.95;14.93;;;;;;;10.26;78.59;102524.75;5093791;28;20028;-46
2023/04/19 05:29:53;;;;;;;21.45;14.82;;;;;;;10.22;77.05;102529.97;5093992;28;20063;-46
2023/04/19 05:32:19;;;;;;;22.23;14.77;;;;;;;10.27;77.95;102538.31;5093752;28;20182;-44
2023/04/19 05:34:44;;;;;;;22.60;14.88;;;;;;;10.24;76.52;102535.25;5093709;28;20159;-48
2023/04/19 05:37:10;;;;;;;20.75;14.07;;;;;;;10.32;77.67;102533.94;5093430;28;20028;-45
2023/04/19 05:39:35;;;;;;;23.35;14.98;;;;;;;10.32;76.40;102526.47;5093625;28;20036;-47
2023/04/19 05:42:01;;;;;;;22.13;15.02;;;;;;;10.37;75.92;102526.56;5093883;28;20114;-45
2023/04/19 05:44:26;;;;;;;21.88;14.75;;;;;;;10.42;76.69;102528.53;5092372;28;20423;-44
2023/04/19 05:46:51;;;;;;;20.90;14.32;;;;;;;10.48;76.00;102533.00;5093551;28;20055;-46
2023/04/19 05:49:17;;;;;;;21.13;14.43;;;;;;;10.53;74.32;102529.44;5093146;28;20696;-46
2023/04/19 05:51:42;;;;;;;21.35;14.30;;;;;;;10.53;75.25;102532.19;5093246;28;20077;-45
2023/04/19 05:54:11;;;;;;;20.85;14.15;;;;;;;10.53;73.75;102523.91;5093131;28;20020;-45
2023/04/19 05:56:37;;;;;;;21.65;14.23;;;;;;;10.56;73.17;102528.91;5093030;28;20043;-45
2023/04/19 05:59:02;;;;;;;20.95;13.90;;;;;;;10.59;75.88;102528.38;5093166;28;20020;-44
2023/04/19 06:01:27;;;;;;;20.05;13.98;;;;;;;10.67;73.23;102527.91;5089663;28;20082;-45
2023/04/19 06:03:53;;;;;;;20.60;14.15;;;;;;;10.66;71.80;102523.47;5093122;28;20510;-45
2023/04/19 06:06:22;;;;;;;20.85;13.77;;;;;;;10.73;72.11;102529.59;5092855;28;20032;-44
2023/04/19 06:08:47;;;;;;;20.63;14.27;;;;;;;10.75;70.29;102523.78;5092458;28;20024;-44
2023/04/19 06:11:13;;;;;;;22.50;14.75;;;;;;;10.82;69.60;102529.91;5093136;28;20389;-44
2023/04/19 06:13:38;;;;;;;21.30;13.88;;;;;;;10.90;70.32;102529.44;5093313;28;20134;-45
2023/04/19 06:16:04;;;;;;;21.05;14.07;;;;;;;10.80;70.58;102510.00;5092656;28;20593;-44
2023/04/19 06:18:30;;;;;;;20.40;13.65;;;;;;;11.00;71.66;102541.69;5092832;28;20109;-45
2023/04/19 06:20:56;;;;;;;21.50;14.38;;;;;;;10.99;68.55;102543.59;5093044;28;20020;-44
2023/04/19 06:23:21;;;;;;;21.92;14.10;;;;;;;10.98;68.30;102530.03;5093001;28;20427;-44
2023/04/19 06:25:47;;;;;;;21.02;14.35;;;;;;;11.07;69.82;102545.88;5092856;28;20028;-45
2023/04/19 06:28:13;;;;;;;21.00;13.98;;;;;;;11.05;67.90;102536.16;5092530;28;20020;-45
2023/04/19 06:30:38;;;;;;;19.88;13.30;;;;;;;11.08;69.01;102541.19;5092784;28;20028;-45
2023/04/19 06:33:03;;;;;;;19.92;12.75;;;;;;;11.08;69.94;102530.91;5092532;28;20024;-45
2023/04/19 06:35:30;;;;;;;19.33;12.65;;;;;;;11.27;73.28;102537.94;5092552;28;20055;-45
2023/04/19 06:37:56;;;;;;;21.17;13.45;;;;;;;11.38;68.69;102532.19;5092389;28;20035;-45
2023/04/19 06:40:21;;;;;;;20.25;13.57;;;;;;;11.32;65.04;102532.41;5092211;28;20043;-44
2023/04/19 06:42:46;;;;;;;20.80;13.70;;;;;;;11.23;63.63;102534.88;5092138;28;20036;-44
2023/04/19 06:45:13;;;;;;;19.90;13.23;;;;;;;11.19;63.82;102533.75;5092393;28;20028;-44
2023/04/19 06:47:39;;;;;;;21.65;13.93;;;;;;;11.20;64.10;102535.41;5092353;28;20032;-44
2023/04/19 06:50:05;;;;;;;21.10;14.18;;;;;;;11.20;64.11;102527.09;5091665;28;20027;-45
2023/04/19 06:52:30;;;;;;;20.55;13.75;;;;;;;11.21;65.45;102535.13;5092138;28;20039;-44
2023/04/19 06:54:55;;;;;;;21.40;13.85;;;;;;;11.18;63.69;102523.75;5092074;28;20115;-44
2023/04/19 06:57:21;;;;;;;20.75;13.68;;;;;;;11.21;63.69;102537.91;5092008;28;20032;-43
2023/04/19 06:59:46;;;;;;;20.40;13.60;;;;;;;11.30;64.91;102526.31;5087480;28;20074;-43
2023/04/19 07:02:11;;;;;;;20.45;13.90;;;;;;;11.38;65.01;102540.50;5091948;28;20028;-44
2023/04/19 07:04:36;;;;;;;20.15;12.90;;;;;;;11.39;64.06;102535.78;5091888;28;20028;-45
2023/04/19 07:07:02;;;;;;;21.00;13.85;;;;;;;11.35;62.64;102524.41;5091463;28;20452;-44
2023/04/19 07:09:28;;;;;;;19.98;12.95;;;;;;;11.44;64.61;102529.41;5091749;28;20115;-45
2023/04/19 07:11:54;;;;;;;21.13;13.45;;;;;;;11.46;63.13;102530.00;5091618;28;20547;-44
2023/04/19 07:14:19;;;;;;;21.67;12.88;;;;;;;11.47;63.02;102526.97;5091637;28;20024;-45
2023/04/19 07:16:45;;;;;;;22.00;13.38;;;;;;;11.55;62.28;102525.59;5091708;28;20107;-46
2023/04/19 07:19:11;;;;;;;20.38;12.85;;;;;;;11.57;60.74;102530.88;5091552;28;20107;-47
2023/04/19 07:21:38;;;;;;;20.63;13.18;;;;;;;11.59;62.37;102529.50;5091889;28;20100;-44
2023/04/19 07:24:05;;;;;;;19.95;12.82;;;;;;;11.68;61.75;102527.00;5091946;28;20057;-45
2023/04/19 07:26:31;;;;;;;20.60;13.05;;;;;;;11.78;62.19;102524.28;5091785;28;20100;-44
2023/04/19 07:28:57;;;;;;;19.98;12.65;;;;;;;11.85;62.55;102529.56;5091925;28;20477;-47
2023/04/19 07:31:23;;;;;;;19.75;12.80;;;;;;;11.79;59.27;102525.94;5092134;28;20051;-43
2023/04/19 07:33:49;;;;;;;20.30;13.55;;;;;;;11.79;60.00;102531.50;5091804;28;20028;-43
2023/04/19 07:36:14;;;;;;;20.77;13.63;;;;;;;11.79;58.84;102536.22;5091885;28;20031;-44
2023/04/19 07:38:39;;;;;;;21.15;13.40;;;;;;;11.80;59.05;102538.69;5091868;28;20032;-43
2023/04/19 07:41:05;;;;;;;20.77;13.70;;;;;;;11.80;57.38;102538.69;5074066;28;20052;-47
2023/04/19 07:43:30;;;;;;;20.55;13.10;;;;;;;11.78;57.00;102531.78;5070308;28;20032;-44
2023/04/19 07:45:56;;;;;;;19.70;12.95;;;;;;;11.75;59.37;102529.53;5070002;28;20032;-44
2023/04/19 07:48:21;;;;;;;20.65;13.65;;;;;;;11.78;57.64;102526.22;5069745;28;20021;-44
2023/04/19 07:50:47;;;;;;;20.23;12.68;;;;;;;11.84;58.06;102534.28;5069610;28;20048;-45
2023/04/19 07:53:13;;;;;;;20.33;12.40;;;;;;;12.06;61.75;102533.22;5069627;28;20033;-44
2023/04/19 07:55:38;;;;;;;20.35;13.15;;;;;;;11.98;58.76;102529.09;5076983;28;20089;-45
2023/04/19 07:58:03;;;;;;;19.95;13.13;;;;;;;11.98;57.16;102529.09;5086783;28;20055;-45
2023/04/19 08:00:29;;;;;;;19.33;13.38;;;;;;;12.02;56.30;102521.03;5089762;28;20480;-45
2023/04/19 08:02:55;;;;;;;20.83;12.80;;;;;;;12.09;57.07;102520.78;5082463;28;20024;-44
2023/04/19 08:05:21;;;;;;;21.48;13.57;;;;;;;12.14;58.06;102518.81;5093681;28;20035;-43
2023/04/19 08:07:47;;;;;;;35.33;15.23;;;;;;;12.51;65.37;102518.84;5093344;28;20032;-43
2023/04/19 08:10:12;;;;;;;23.80;13.82;;;;;;;12.48;56.33;102528.53;5092201;28;20032;-44
2023/04/19 08:12:38;;;;;;;20.30;13.38;;;;;;;12.47;54.20;102522.19;5093464;28;20024;-44
2023/04/19 08:15:06;;;;;;;20.88;13.65;;;;;;;12.45;53.58;102523.56;5093371;28;20028;-45
2023/04/19 08:17:32;;;;;;;20.60;13.82;;;;;;;12.43;53.84;102520.22;5093733;28;20043;-44
2023/04/19 08:19:57;;;;;;;22.27;13.60;;;;;;;12.45;54.44;102531.91;5093926;28;20035;-45
2023/04/19 08:22:22;;;;;;;20.25;14.20;;;;;;;12.47;53.11;102532.44;5093735;28;20052;-45
2023/04/19 08:24:50;;;;;;;20.40;13.13;;;;;;;12.44;51.47;102524.69;5093756;28;20020;-47
2023/04/19 08:27:15;;;;;;;20.85;13.48;;;;;;;12.41;50.97;102517.75;5092388;28;20138;-47
2023/04/19 08:29:41;;;;;;;21.10;13.35;;;;;;;12.45;52.53;102518.03;5093539;28;20461;-44
2023/04/19 08:32:06;;;;;;;21.17;13.27;;;;;;;12.50;53.01;102522.72;5093612;28;20040;-45
2023/04/19 08:34:36;;;;;;;20.33;12.95;;;;;;;12.43;51.62;102514.69;5093819;28;20020;-45
2023/04/19 08:37:02;;;;;;;20.85;13.00;;;;;;;12.45;51.02;102507.72;5089017;28;20492;-43
2023/04/19 08:39:27;;;;;;;20.52;12.80;;;;;;;12.59;53.93;102508.00;5077518;28;20068;-44
2023/04/19 08:41:55;;;;;;;20.10;12.85;;;;;;;12.52;51.11;102504.69;5073245;28;20033;-44
2023/04/19 08:44:21;;;;;;;19.02;12.23;;;;;;;12.54;49.35;102509.94;5073155;28;20219;-44
2023/04/19 08:46:49;;;;;;;19.80;12.32;;;;;;;12.53;49.50;102505.50;5073070;28;20070;-43
2023/04/19 08:49:15;;;;;;;19.52;12.38;;;;;;;12.58;49.11;102509.09;5073046;28;20028;-44
2023/04/19 08:51:41;;;;;;;20.20;11.75;;;;;;;12.68;50.84;102513.84;5072497;28;20125;-44
2023/04/19 08:54:07;;;;;;;19.80;12.30;;;;;;;12.62;48.19;102510.22;5072442;28;20024;-43
2023/04/19 08:56:33;;;;;;;18.55;11.73;;;;;;;12.64;48.89;102509.94;5072513;28;20127;-44
2023/04/19 08:58:58;;;;;;;20.80;12.88;;;;;;;12.57;48.40;102509.41;5072618;28;20029;-44
2023/04/19 09:01:23;;;;;;;19.70;11.60;;;;;;;12.58;49.59;102514.66;5072779;28;20768;-44
2023/04/19 09:03:49;;;;;;;18.27;11.60;;;;;;;12.54;47.00;102505.25;5072697;28;20761;-44
2023/04/19 09:06:14;;;;;;;19.83;11.63;;;;;;;12.58;48.20;102517.44;5072491;28;20032;-44
2023/04/19 09:08:40;;;;;;;17.90;11.15;;;;;;;12.59;47.92;102515.50;5070815;28;20034;-46
2023/04/19 09:11:06;;;;;;;18.45;11.43;;;;;;;12.57;46.60;102510.22;5072355;28;20511;-44
2023/04/19 09:13:32;;;;;;;17.55;11.02;;;;;;;12.61;47.07;102505.78;5071495;28;20032;-42
2023/04/19 09:15:59;;;;;;;18.88;11.20;;;;;;;12.68;49.51;102504.66;5072373;28;20036;-43
2023/04/19 09:18:25;;;;;;;19.10;11.32;;;;;;;12.68;46.63;102507.44;5072477;28;20043;-43
2023/04/19 09:20:56;;;;;;;18.08;11.20;;;;;;;12.75;49.02;102505.22;5072590;28;20036;-43
2023/04/19 09:23:24;;;;;;;18.38;11.20;;;;;;;12.76;48.20;102506.84;5072253;28;20367;-42
2023/04/19 09:25:53;;;;;;;16.95;10.82;;;;;;;12.70;46.68;102496.88;5072181;28;20032;-43
2023/04/19 09:28:19;;;;;;;18.60;11.50;;;;;;;12.76;47.34;102507.72;5072080;28;20161;-43
2023/04/19 09:30:45;;;;;;;21.45;11.32;;;;;;;12.80;47.30;102508.78;5068542;28;20107;-46
2023/04/19 09:33:11;;;;;;;18.77;11.57;;;;;;;12.85;48.46;102512.69;5071499;28;20159;-44
2023/04/19 09:35:46;;;;;;;20.45;11.65;;;;;;;12.80;46.66;102513.53;5069762;28;20123;-43
2023/04/19 09:38:11;;;;;;;17.33;11.32;;;;;;;12.84;46.37;102500.75;5072052;28;20028;-44
2023/04/19 09:40:38;;;;;;;19.88;11.35;;;;;;;12.85;47.33;102507.94;5071909;28;20105;-44
2023/04/19 09:43:03;;;;;;;18.83;11.27;;;;;;;12.89;47.95;102503.50;5071843;28;20067;-43
2023/04/19 09:45:42;;;;;;;17.13;11.43;;;;;;;12.94;47.15;102497.09;5070084;28;20078;-43
2023/04/19 09:48:09;;;;;;;18.65;11.48;;;;;;;12.90;46.51;102494.06;5070209;28;20487;-43
2023/04/19 09:50:49;;;;;;;18.27;11.80;;;;;;;12.98;47.52;102497.38;5070631;28;20501;-47
2023/04/19 09:53:15;;;;;;;17.08;10.85;;;;;;;13.04;48.42;102499.88;5070266;28;20750;-47
2023/04/19 09:55:41;;;;;;;17.83;11.18;;;;;;;13.02;46.37;102501.25;5070108;28;20060;-47
2023/04/19 09:58:07;;;;;;;19.45;11.20;;;;;;;13.00;46.94;102492.38;5070459;28;20512;-47
2023/04/19 10:00:34;;;;;;;18.13;10.77;;;;;;;13.09;46.60;102496.22;5070587;28;20025;-44
2023/04/19 10:03:00;;;;;;;19.55;11.18;;;;;;;13.04;46.16;102499.00;5074533;28;20111;-46
2023/04/19 10:05:25;;;;;;;17.55;10.90;;;;;;;13.01;45.13;102483.75;5091784;28;20111;-46
2023/04/19 10:07:52;;;;;;;16.73;10.43;;;;;;;13.02;45.01;102482.63;5079488;28;20043;-44
2023/04/19 10:10:18;;;;;;;17.85;10.07;;;;;;;13.02;43.53;102481.81;5070719;28;20495;-45
2023/04/19 10:12:48;;;;;;;22.50;10.70;;;;;;;13.07;40.49;102492.91;5091757;28;20085;-44
2023/04/19 10:15:13;;;;;;;18.83;10.20;;;;;;;13.06;42.75;102480.97;5071132;28;20035;-43
2023/04/19 10:17:40;;;;;;;15.65;9.95;;;;;;;13.05;41.05;102492.34;5071088;28;20028;-43
2023/04/19 10:20:09;;;;;;;15.90;10.05;;;;;;;12.97;39.80;102479.03;5089734;28;20055;-47
2023/04/19 10:22:38;;;;;;;16.50;10.35;;;;;;;13.09;43.82;102485.13;5086727;28;20105;-43
2023/04/19 10:25:08;;;;;;;16.83;10.30;;;;;;;13.05;40.57;102481.22;5090504;28;20435;-43
2023/04/19 10:27:34;;;;;;;16.27;9.93;;;;;;;13.08;43.81;102483.47;5091180;28;20055;-43
2023/04/19 10:30:02;;;;;;;15.80;10.10;;;;;;;13.11;42.69;102488.47;5091214;28;20433;-43
2023/04/19 10:32:42;;;;;;;15.75;9.60;;;;;;;13.06;41.21;102466.22;5091058;28;20595;-44
2023/04/19 10:35:09;;;;;;;16.58;9.88;;;;;;;13.11;40.47;102480.13;5090866;28;20495;-43
2023/04/19 10:37:39;;;;;;;15.85;9.90;;;;;;;13.06;40.16;102478.19;5090666;28;20623;-43
2023/04/19 10:40:06;;;;;;;14.95;9.85;;;;;;;13.14;41.89;102476.75;5090895;28;20841;-43
2023/04/19 10:43:09;;;;;;;14.55;9.88;;;;;;;13.21;42.13;102482.00;5089404;28;20032;-43
2023/04/19 10:45:35;;;;;;;17.00;10.00;;;;;;;13.20;41.07;102466.44;5090612;28;20040;-43
2023/04/19 10:48:02;;;;;;;14.43;9.68;;;;;;;13.20;40.77;102472.00;5090296;28;20039;-43
2023/04/19 10:50:27;;;;;;;16.00;9.65;;;;;;;13.27;42.38;102464.22;5070549;28;20037;-44
2023/04/19 10:52:53;;;;;;;14.95;9.68;;;;;;;13.24;39.99;102482.28;5070133;28;20575;-45
2023/04/19 10:55:19;;;;;;;14.73;9.43;;;;;;;13.27;40.11;102478.94;5088184;28;20056;-43
2023/04/19 10:58:04;;;;;;;15.43;9.80;;;;;;;13.32;41.80;102475.31;5089089;28;20032;-43
2023/04/19 11:00:31;;;;;;;16.17;9.93;;;;;;;13.33;41.68;102479.75;5088336;28;20488;-43
2023/04/19 11:02:57;;;;;;;14.80;9.55;;;;;;;13.33;39.92;102468.63;5087786;28;20032;-45
2023/04/19 11:05:23;;;;;;;14.48;10.00;;;;;;;13.35;42.35;102469.19;5086217;28;20526;-42